Time;durP1;ratioP1;P1;durP2;ratioP2;P2;SDS_P1;SDS_P2;PMS_P1;PMS_P2;Temp;Humidity;BMP_temperature;BMP_pressure;BME280_temperature;BME280_humidity;BME280_pressure;Samples;Min_cycle;Max_cycle;Signal;HPM_P1;HPM_P2
2022/12/08 00:02:09;;;;;;;24.17;12.98;;;3.00;99.90;;;;;;5081865;28;20086;-67
2022/12/08 00:09:20;;;;;;;22.60;12.85;;;3.00;99.90;;;;;;5099563;28;20041;-67
2022/12/08 00:10:11;;;;;;;28.65;13.18;;;3.00;99.90;;;;;;5099926;28;20023;-67
2022/12/08 00:12:38;;;;;;;25.67;11.63;;;3.00;99.90;;;;;;5100208;28;20020;-67
2022/12/08 00:15:06;;;;;;;22.65;12.90;;;3.00;99.90;;;;;;5099753;28;20439;-67
2022/12/08 00:17:34;;;;;;;28.75;12.20;;;3.00;99.90;;;;;;5100133;28;20028;-67
2022/12/08 00:20:01;;;;;;;18.90;10.05;;;3.00;99.90;;;;;;5099448;28;20027;-67
2022/12/08 00:22:31;;;;;;;24.75;12.07;;;3.00;99.90;;;;;;5099685;28;20016;-67
2022/12/08 00:24:58;;;;;;;26.95;13.57;;;3.00;99.90;;;;;;5099906;28;20423;-67
2022/12/08 00:27:27;;;;;;;23.88;12.43;;;3.00;99.90;;;;;;5099458;28;20020;-67
2022/12/08 00:29:54;;;;;;;21.00;12.10;;;3.00;99.90;;;;;;5081345;28;20103;-67
2022/12/08 00:32:21;;;;;;;24.55;12.18;;;3.00;99.90;;;;;;5099974;28;20024;-67
2022/12/08 00:34:49;;;;;;;24.80;11.07;;;3.00;99.90;;;;;;5099802;28;20024;-67
2022/12/08 00:37:16;;;;;;;23.75;11.05;;;3.00;99.90;;;;;;5099077;28;20016;-67
2022/12/08 00:39:44;;;;;;;23.35;10.60;;;3.00;99.90;;;;;;5099127;28;20309;-67
2022/12/08 00:42:12;;;;;;;21.67;11.75;;;3.00;99.90;;;;;;5099643;28;20069;-67
2022/12/08 00:44:44;;;;;;;22.63;11.98;;;3.00;99.90;;;;;;5081207;28;20036;-67
2022/12/08 00:47:14;;;;;;;18.60;11.15;;;3.00;99.90;;;;;;5098865;28;20028;-67
2022/12/08 00:49:43;;;;;;;24.05;12.40;;;3.00;99.90;;;;;;5099562;28;20046;-67
2022/12/08 00:52:11;;;;;;;22.05;11.57;;;3.00;99.90;;;;;;5098826;28;20069;-67
2022/12/08 00:54:39;;;;;;;24.25;12.70;;;3.00;99.90;;;;;;5099625;28;20103;-67
2022/12/08 00:57:06;;;;;;;18.67;9.85;;;3.00;99.90;;;;;;5099333;28;20020;-67
2022/12/08 00:59:33;;;;;;;15.65;9.35;;;3.00;99.90;;;;;;5080815;28;20028;-67
2022/12/08 01:02:01;;;;;;;19.10;10.27;;;3.00;99.90;;;;;;5098750;28;20027;-67
2022/12/08 01:04:29;;;;;;;20.65;10.85;;;3.00;99.90;;;;;;5098819;28;20040;-67
2022/12/08 01:06:56;;;;;;;25.88;11.68;;;3.00;99.90;;;;;;5099106;28;20024;-67
2022/12/08 01:09:24;;;;;;;19.95;10.98;;;3.00;99.90;;;;;;5098593;28;20450;-67
2022/12/08 01:11:51;;;;;;;21.83;10.23;;;3.00;99.90;;;;;;5080617;28;20031;-67
2022/12/08 01:14:20;;;;;;;22.52;12.15;;;3.00;99.90;;;;;;5099193;28;20028;-67
2022/12/08 01:16:47;;;;;;;19.25;10.90;;;3.00;99.90;;;;;;5098447;28;20108;-67
2022/12/08 01:19:16;;;;;;;21.20;10.68;;;3.00;99.90;;;;;;5098904;28;20020;-67
2022/12/08 01:21:45;;;;;;;19.80;10.68;;;3.00;99.90;;;;;;5098821;28;20396;-67
2022/12/08 01:24:17;;;;;;;25.50;10.38;;;3.00;99.90;;;;;;5080174;28;20032;-67
2022/12/08 01:26:45;;;;;;;20.25;10.32;;;2.90;99.90;;;;;;5098785;28;20017;-67
2022/12/08 01:29:13;;;;;;;24.70;11.43;;;2.90;99.90;;;;;;5080527;28;20082;-67
2022/12/08 01:31:40;;;;;;;18.48;10.63;;;2.90;99.90;;;;;;5098427;28;20044;-67
2022/12/08 01:34:10;;;;;;;19.40;11.07;;;2.90;99.90;;;;;;5098064;28;20297;-67
2022/12/08 01:36:37;;;;;;;19.00;10.50;;;2.90;99.90;;;;;;5098163;28;20027;-67
2022/12/08 01:39:07;;;;;;;21.98;10.60;;;2.90;99.90;;;;;;5080200;28;20107;-67
2022/12/08 01:41:37;;;;;;;20.52;10.60;;;2.90;99.90;;;;;;5098476;28;20024;-67
2022/12/08 01:44:25;;;;;;;18.80;11.02;;;2.90;99.90;;;;;;5097845;28;20024;-67
2022/12/08 01:46:53;;;;;;;21.45;11.35;;;2.90;99.90;;;;;;5097790;28;20099;-67
2022/12/08 01:49:32;;;;;;;21.17;12.02;;;2.90;99.90;;;;;;5097972;28;20098;-67
2022/12/08 01:52:30;;;;;;;18.35;10.38;;;2.90;99.90;;;;;;5097691;28;20069;-67
2022/12/08 01:55:06;;;;;;;24.75;11.73;;;2.90;99.90;;;;;;5097966;28;20024;-67
2022/12/08 01:57:52;;;;;;;20.33;11.35;;;2.90;99.90;;;;;;5097843;28;20021;-67
2022/12/08 02:00:22;;;;;;;18.70;11.27;;;2.90;99.90;;;;;;5096653;28;20116;-67
2022/12/08 02:03:11;;;;;;;22.05;10.90;;;2.90;99.90;;;;;;5098144;28;20103;-67
2022/12/08 02:05:40;;;;;;;17.30;10.80;;;2.90;99.90;;;;;;5077155;28;20480;-67
2022/12/08 02:08:11;;;;;;;21.30;10.68;;;2.90;99.90;;;;;;5077885;28;20028;-67
2022/12/08 02:10:41;;;;;;;26.27;10.15;;;2.90;99.90;;;;;;5077607;28;20104;-67
2022/12/08 02:13:21;;;;;;;23.75;11.85;;;2.80;99.90;;;;;;5077065;28;20043;-67
2022/12/08 02:16:18;;;;;;;21.92;11.63;;;2.80;99.90;;;;;;5076945;28;20028;-67
2022/12/08 02:19:03;;;;;;;24.52;11.38;;;2.80;99.90;;;;;;5077270;28;20013;-67
2022/12/08 02:21:56;;;;;;;25.33;12.18;;;2.80;99.90;;;;;;5077442;28;20025;-67
2022/12/08 02:24:41;;;;;;;21.15;11.27;;;2.90;99.90;;;;;;5077229;28;20027;-67
2022/12/08 02:27:21;;;;;;;22.40;12.60;;;2.80;99.90;;;;;;5077120;28;20039;-67
2022/12/08 02:30:22;;;;;;;22.45;11.95;;;2.90;99.90;;;;;;5059325;28;20336;-67
2022/12/08 02:33:08;;;;;;;18.65;11.85;;;2.90;99.90;;;;;;5077277;28;20017;-67
2022/12/08 02:35:36;;;;;;;25.80;12.98;;;2.90;99.90;;;;;;5076949;28;20301;-67
2022/12/08 02:38:21;;;;;;;28.90;14.27;;;2.90;99.90;;;;;;5077308;28;20031;-67
2022/12/08 02:41:32;;;;;;;22.77;11.88;;;2.90;99.90;;;;;;5077252;28;20028;-67
2022/12/08 02:44:09;;;;;;;24.48;11.95;;;2.90;99.90;;;;;;5055901;28;20328;-67
2022/12/08 02:46:55;;;;;;;26.15;13.77;;;2.90;99.90;;;;;;5077170;28;20017;-67
2022/12/08 02:49:30;;;;;;;24.80;12.35;;;2.90;99.90;;;;;;5077193;28;20103;-67
2022/12/08 02:52:10;;;;;;;25.48;13.48;;;2.90;99.90;;;;;;5076417;28;20029;-67
2022/12/08 02:54:48;;;;;;;29.17;14.70;;;2.90;99.90;;;;;;5077254;28;20025;-67
2022/12/08 02:57:37;;;;;;;26.20;12.68;;;2.80;99.90;;;;;;5058677;28;20024;-67
2022/12/08 03:00:21;;;;;;;34.63;14.30;;;2.80;99.90;;;;;;5058631;28;20111;-67
2022/12/08 03:02:52;;;;;;;29.25;15.77;;;2.80;99.90;;;;;;5076624;28;20024;-67
2022/12/08 03:05:39;;;;;;;25.48;14.07;;;2.70;99.90;;;;;;5094812;28;20044;-67
2022/12/08 03:08:17;;;;;;;26.65;14.75;;;2.60;99.90;;;;;;5096636;28;20016;-67
2022/12/08 03:11:01;;;;;;;31.45;17.13;;;2.60;99.90;;;;;;5082338;28;20316;-67
2022/12/08 03:13:40;;;;;;;30.60;16.40;;;2.60;99.90;;;;;;5101540;28;20016;-67
2022/12/08 03:16:10;;;;;;;32.42;16.30;;;2.70;99.90;;;;;;5101004;28;20019;-67
2022/12/08 03:18:42;;;;;;;31.25;16.00;;;2.70;99.90;;;;;;5101043;28;20031;-67
2022/12/08 03:21:12;;;;;;;30.15;17.20;;;2.70;99.90;;;;;;5100632;28;20026;-67
2022/12/08 03:23:41;;;;;;;36.30;17.65;;;2.70;99.90;;;;;;5100694;28;20031;-67
2022/12/08 03:26:20;;;;;;;39.15;18.80;;;2.70;99.90;;;;;;5100567;28;20108;-67
2022/12/08 03:28:48;;;;;;;32.60;17.40;;;2.70;99.90;;;;;;5100848;28;20024;-67
2022/12/08 03:31:16;;;;;;;33.53;18.30;;;2.70;99.90;;;;;;5100455;28;20023;-67
2022/12/08 03:33:51;;;;;;;36.72;19.02;;;2.70;99.90;;;;;;5100606;28;20451;-67
2022/12/08 03:36:19;;;;;;;36.45;18.15;;;2.70;99.90;;;;;;5100588;28;20328;-67
2022/12/08 03:38:53;;;;;;;34.85;19.55;;;2.70;99.90;;;;;;5082366;28;20032;-67
2022/12/08 03:41:21;;;;;;;46.50;20.85;;;2.70;99.90;;;;;;5100274;28;20085;-67
2022/12/08 03:43:51;;;;;;;47.78;20.63;;;2.80;99.90;;;;;;5100641;28;20024;-67
2022/12/08 03:46:20;;;;;;;40.38;20.40;;;2.70;99.90;;;;;;5082190;28;20027;-67
2022/12/08 03:48:48;;;;;;;46.42;21.92;;;2.80;99.90;;;;;;5100441;28;20333;-67
2022/12/08 03:51:16;;;;;;;41.35;17.98;;;2.80;99.90;;;;;;5100024;28;20044;-67
2022/12/08 03:53:44;;;;;;;38.45;19.25;;;2.80;99.90;;;;;;5100047;28;20031;-67
2022/12/08 03:56:26;;;;;;;46.38;19.52;;;2.80;99.90;;;;;;5099989;28;20321;-67
2022/12/08 03:58:54;;;;;;;43.58;19.02;;;2.80;99.90;;;;;;5100462;28;20028;-67
2022/12/08 04:01:21;;;;;;;42.05;20.55;;;2.80;99.90;;;;;;5099923;28;20048;-67
2022/12/08 04:03:49;;;;;;;33.72;15.90;;;2.80;99.90;;;;;;5100266;28;20115;-67
2022/12/08 04:06:17;;;;;;;38.67;19.60;;;2.80;99.90;;;;;;5099749;28;20043;-67
2022/12/08 04:08:44;;;;;;;42.45;18.92;;;2.80;99.90;;;;;;5099934;28;20023;-67
2022/12/08 04:11:12;;;;;;;30.23;15.65;;;2.80;99.90;;;;;;5099762;28;20107;-67
2022/12/08 04:13:41;;;;;;;27.42;15.18;;;2.80;99.90;;;;;;5081683;28;20107;-67
2022/12/08 04:16:14;;;;;;;29.63;16.02;;;2.90;99.90;;;;;;5099637;28;20024;-67
2022/12/08 04:18:41;;;;;;;28.42;15.70;;;2.80;99.90;;;;;;5099762;28;20051;-67
2022/12/08 04:21:09;;;;;;;29.30;15.15;;;2.90;99.90;;;;;;5099436;28;20024;-67
2022/12/08 04:23:36;;;;;;;35.95;17.27;;;2.90;99.90;;;;;;5098916;28;20102;-67
2022/12/08 04:26:04;;;;;;;30.70;15.98;;;2.90;99.90;;;;;;5099983;28;20020;-67
2022/12/08 04:28:32;;;;;;;25.30;14.40;;;2.90;99.90;;;;;;5099684;28;20024;-67
2022/12/08 04:31:00;;;;;;;25.05;13.38;;;2.90;99.90;;;;;;5081760;28;20439;-67
2022/12/08 04:33:27;;;;;;;29.10;14.82;;;2.90;99.90;;;;;;5099879;28;20063;-67
2022/12/08 04:35:55;;;;;;;27.52;14.52;;;2.90;99.90;;;;;;5099580;28;20078;-67
2022/12/08 04:38:23;;;;;;;30.58;15.20;;;2.90;99.90;;;;;;5099742;28;20027;-69
2022/12/08 04:40:52;;;;;;;22.45;12.07;;;2.90;99.90;;;;;;5099224;28;20016;-67
2022/12/08 04:43:20;;;;;;;29.00;14.38;;;2.90;99.90;;;;;;5099765;28;20039;-67
2022/12/08 04:45:47;;;;;;;27.92;15.30;;;2.90;99.90;;;;;;5081149;28;20073;-67
2022/12/08 04:48:15;;;;;;;21.17;12.48;;;2.90;99.90;;;;;;5099047;28;20027;-67
2022/12/08 04:50:43;;;;;;;23.58;11.80;;;2.90;99.90;;;;;;5081545;28;20016;-67
2022/12/08 04:53:12;;;;;;;28.40;13.88;;;2.90;99.90;;;;;;5099128;28;20027;-67
2022/12/08 04:55:43;;;;;;;25.83;13.30;;;2.90;99.90;;;;;;5098904;28;20066;-67
2022/12/08 04:58:15;;;;;;;26.05;12.82;;;2.90;99.90;;;;;;5098807;28;20024;-67
2022/12/08 05:00:43;;;;;;;29.55;14.43;;;2.90;99.90;;;;;;5098797;28;20020;-67
2022/12/08 05:03:11;;;;;;;33.88;16.13;;;2.80;99.90;;;;;;5099185;28;20100;-67
2022/12/08 05:05:39;;;;;;;38.17;17.60;;;2.80;99.90;;;;;;5098591;28;20078;-67
2022/12/08 05:08:06;;;;;;;34.83;16.70;;;2.80;99.90;;;;;;5080676;28;20020;-67
2022/12/08 05:10:33;;;;;;;31.35;16.63;;;2.80;99.90;;;;;;5099137;28;20020;-67
2022/12/08 05:13:01;;;;;;;20.10;9.90;;;2.80;99.90;;;;;;5099131;28;20020;-67
2022/12/08 05:15:28;;;;;;;35.63;18.13;;;2.80;99.90;;;;;;5099090;28;20023;-67
2022/12/08 05:17:56;;;;;;;31.95;16.08;;;2.80;99.90;;;;;;5098491;28;20031;-67
2022/12/08 05:20:23;;;;;;;30.27;14.45;;;2.80;99.90;;;;;;5098886;28;20020;-67
2022/12/08 05:22:51;;;;;;;31.65;15.95;;;2.80;99.90;;;;;;5098916;28;20016;-67
2022/12/08 05:25:18;;;;;;;34.25;16.85;;;2.80;99.90;;;;;;5098719;28;20130;-67
2022/12/08 05:27:46;;;;;;;26.08;14.20;;;2.80;99.90;;;;;;5098382;28;20031;-67
2022/12/08 05:30:14;;;;;;;27.52;15.13;;;2.80;99.90;;;;;;5098193;28;20026;-67
2022/12/08 05:32:42;;;;;;;32.63;15.25;;;2.80;99.90;;;;;;5098196;28;20096;-67
2022/12/08 05:35:11;;;;;;;20.52;10.73;;;2.80;99.90;;;;;;5097898;28;20024;-67
2022/12/08 05:37:39;;;;;;;26.70;14.45;;;2.80;99.90;;;;;;5080231;28;20024;-67
2022/12/08 05:40:07;;;;;;;31.15;15.00;;;2.80;99.90;;;;;;5097949;28;20024;-67
2022/12/08 05:42:34;;;;;;;29.52;15.63;;;2.80;99.90;;;;;;5080283;28;20023;-67
2022/12/08 05:45:03;;;;;;;29.85;15.27;;;2.80;99.90;;;;;;5097791;28;20324;-67
2022/12/08 05:47:30;;;;;;;32.13;14.45;;;2.80;99.90;;;;;;5080678;28;20069;-67
2022/12/08 05:49:58;;;;;;;26.98;13.25;;;2.80;99.90;;;;;;5097809;28;20100;-67
2022/12/08 05:52:25;;;;;;;29.75;14.95;;;2.80;99.90;;;;;;5097681;28;20023;-67
2022/12/08 05:54:52;;;;;;;25.30;13.63;;;2.80;99.90;;;;;;5097717;28;20031;-67
2022/12/08 05:57:19;;;;;;;29.20;15.35;;;2.80;99.90;;;;;;5098361;28;20028;-67
2022/12/08 05:59:47;;;;;;;29.30;15.30;;;2.80;99.90;;;;;;5079627;28;20035;-67
2022/12/08 06:02:14;;;;;;;30.60;14.90;;;2.80;99.90;;;;;;5097559;28;20043;-67
2022/12/08 06:04:42;;;;;;;24.85;13.88;;;2.80;99.90;;;;;;5075930;28;20464;-67
2022/12/08 06:07:09;;;;;;;28.52;13.98;;;2.80;99.90;;;;;;5077845;28;20020;-67
2022/12/08 06:09:37;;;;;;;25.17;13.13;;;2.80;99.90;;;;;;5077738;28;20400;-67
2022/12/08 06:12:04;;;;;;;25.30;13.25;;;2.80;99.90;;;;;;5077690;28;20021;-67
2022/12/08 06:14:32;;;;;;;28.67;14.82;;;2.80;99.90;;;;;;5077661;28;20064;-67
2022/12/08 06:16:59;;;;;;;23.70;12.85;;;2.80;99.90;;;;;;5077452;28;20020;-67
2022/12/08 06:19:26;;;;;;;27.55;14.05;;;2.70;99.90;;;;;;5075958;28;20053;-67
2022/12/08 06:21:53;;;;;;;23.67;12.77;;;2.70;99.90;;;;;;5075818;28;20167;-67
2022/12/08 06:24:20;;;;;;;21.58;12.60;;;2.70;99.90;;;;;;5076858;28;20122;-67
2022/12/08 06:26:48;;;;;;;24.92;12.30;;;2.60;99.90;;;;;;5076934;28;20020;-67
2022/12/08 06:29:15;;;;;;;24.13;12.07;;;2.60;99.90;;;;;;5077408;28;20021;-67
2022/12/08 06:31:43;;;;;;;23.10;11.30;;;2.60;99.90;;;;;;5075748;28;20535;-67
2022/12/08 06:34:10;;;;;;;20.60;11.88;;;2.50;99.90;;;;;;5077550;28;20035;-67
2022/12/08 06:36:37;;;;;;;20.85;11.50;;;2.50;99.90;;;;;;5077278;28;20074;-67
2022/12/08 06:39:05;;;;;;;20.33;10.02;;;2.40;99.90;;;;;;5076769;28;20027;-67
2022/12/08 06:42:42;;;;;;;20.13;10.23;;;2.40;99.90;;;;;;5076701;28;20035;-66
2022/12/08 06:44:21;;;;;;;16.88;9.07;;;2.40;99.90;;;;;;5075845;28;20031;-67
2022/12/08 06:46:48;;;;;;;20.50;10.93;;;2.30;99.90;;;;;;5076167;28;20378;-67
2022/12/08 06:49:15;;;;;;;16.30;9.32;;;2.40;99.90;;;;;;5076599;28;20095;-67
2022/12/08 06:51:43;;;;;;;19.63;10.55;;;2.30;99.90;;;;;;5076658;28;20031;-68
2022/12/08 06:54:10;;;;;;;17.55;9.48;;;2.30;99.90;;;;;;5077239;28;20028;-71
2022/12/08 06:56:38;;;;;;;16.70;9.90;;;2.30;99.90;;;;;;5076529;28;20025;-69
2022/12/08 06:59:05;;;;;;;16.88;9.40;;;2.30;99.90;;;;;;5075427;28;20074;-70
2022/12/08 07:01:34;;;;;;;16.30;8.88;;;2.20;99.90;;;;;;5076743;28;20029;-69
2022/12/08 07:04:02;;;;;;;21.13;10.80;;;2.20;99.90;;;;;;5083496;28;20048;-70
2022/12/08 07:06:30;;;;;;;18.63;10.02;;;2.20;99.90;;;;;;5096900;28;20016;-81
2022/12/08 07:08:57;;;;;;;19.67;10.07;;;2.30;99.90;;;;;;5078670;28;20460;-71
2022/12/08 07:11:24;;;;;;;16.48;9.27;;;2.20;99.90;;;;;;5096579;28;20024;-70
2022/12/08 07:13:56;;;;;;;17.77;10.00;;;2.20;99.90;;;;;;5096724;28;20024;-70
2022/12/08 07:16:23;;;;;;;16.60;9.63;;;2.20;99.90;;;;;;5096526;28;20027;-70
2022/12/08 07:18:52;;;;;;;18.10;9.77;;;2.20;99.90;;;;;;5097095;28;20128;-71
2022/12/08 07:21:19;;;;;;;18.67;9.65;;;2.20;99.90;;;;;;5096430;28;20101;-70
2022/12/08 07:23:47;;;;;;;18.52;10.05;;;2.20;99.90;;;;;;5096537;28;20416;-73
2022/12/08 07:26:15;;;;;;;17.38;10.77;;;2.20;99.90;;;;;;5078580;28;20024;-72
2022/12/08 07:28:43;;;;;;;16.88;9.32;;;2.20;99.90;;;;;;5078516;28;20115;-72
2022/12/08 07:31:22;;;;;;;18.98;11.43;;;2.30;99.90;;;;;;5096360;28;20022;-74
2022/12/08 07:33:49;;;;;;;23.02;10.50;;;2.30;99.90;;;;;;5096854;28;20024;-73
2022/12/08 07:36:17;;;;;;;17.35;9.82;;;2.30;99.90;;;;;;5096538;28;20020;-74
2022/12/08 07:38:44;;;;;;;18.42;9.75;;;2.30;99.90;;;;;;5078390;28;20024;-74
2022/12/08 07:41:13;;;;;;;17.30;9.73;;;2.30;99.90;;;;;;5078378;28;20036;-73
2022/12/08 07:43:41;;;;;;;20.15;10.23;;;2.40;99.90;;;;;;5096313;28;20024;-72
2022/12/08 07:46:16;;;;;;;16.85;9.15;;;2.30;99.90;;;;;;5096745;28;20308;-71
2022/12/08 07:48:45;;;;;;;19.70;10.48;;;2.30;99.90;;;;;;5096695;28;20353;-70
2022/12/08 07:51:14;;;;;;;17.98;10.60;;;2.30;99.90;;;;;;5096456;28;20021;-69
2022/12/08 07:53:44;;;;;;;17.40;9.32;;;2.40;99.90;;;;;;5096799;28;20024;-69
2022/12/08 07:56:13;;;;;;;19.05;10.52;;;2.40;99.90;;;;;;5096579;28;20324;-69
2022/12/08 07:58:40;;;;;;;17.33;9.77;;;2.40;99.90;;;;;;5100203;28;20024;-68
2022/12/08 08:01:22;;;;;;;14.77;9.05;;;2.40;99.90;;;;;;5099956;28;20024;-69
2022/12/08 08:03:49;;;;;;;17.73;9.80;;;2.40;99.90;;;;;;5078307;28;20041;-69
2022/12/08 08:06:16;;;;;;;17.77;9.70;;;2.40;99.90;;;;;;5078417;28;20071;-68
2022/12/08 08:08:43;;;;;;;15.65;9.15;;;2.50;99.90;;;;;;5078618;28;20021;-69
2022/12/08 08:11:11;;;;;;;16.63;8.70;;;2.50;99.90;;;;;;5080100;28;20328;-68
2022/12/08 08:13:39;;;;;;;15.23;8.70;;;2.50;99.90;;;;;;5079424;28;20036;-68
2022/12/08 08:16:08;;;;;;;18.15;10.63;;;2.60;99.90;;;;;;5079348;28;20035;-68
2022/12/08 08:18:36;;;;;;;18.35;10.30;;;2.60;99.90;;;;;;5080061;28;20024;-82
2022/12/08 08:21:03;;;;;;;18.73;9.63;;;2.60;99.90;;;;;;5078038;28;20024;-69
2022/12/08 08:23:31;;;;;;;17.25;9.07;;;2.60;99.90;;;;;;5079806;28;20484;-69
2022/12/08 08:26:00;;;;;;;16.58;9.68;;;2.60;99.90;;;;;;5079787;28;20025;-69
2022/12/08 08:28:28;;;;;;;20.02;9.88;;;2.60;99.90;;;;;;5079294;28;20329;-69
2022/12/08 08:30:55;;;;;;;18.52;10.45;;;2.50;99.90;;;;;;5079142;28;20016;-68
2022/12/08 08:33:23;;;;;;;17.90;9.73;;;2.50;99.90;;;;;;5079168;28;20424;-69
2022/12/08 08:35:50;;;;;;;19.80;9.95;;;2.50;99.90;;;;;;5078964;28;20027;-74
2022/12/08 08:38:18;;;;;;;14.80;8.52;;;2.50;99.90;;;;;;5079411;28;20025;-69
2022/12/08 08:40:45;;;;;;;21.38;10.15;;;2.50;99.90;;;;;;5079254;28;20419;-69
2022/12/08 08:43:27;;;;;;;14.48;6.80;;;2.40;99.90;;;;;;5078842;28;20028;-69
2022/12/08 08:45:58;;;;;;;17.05;8.80;;;2.40;99.90;;;;;;5079125;28;20016;-68
2022/12/08 08:48:30;;;;;;;18.83;10.23;;;2.40;99.90;;;;;;5079363;28;20017;-68
2022/12/08 08:51:06;;;;;;;18.80;10.15;;;2.40;99.90;;;;;;5078729;28;20306;-68
2022/12/08 08:53:34;;;;;;;19.60;11.23;;;2.40;99.90;;;;;;5078773;28;20321;-68
2022/12/08 08:56:04;;;;;;;19.15;9.90;;;2.40;99.90;;;;;;5079246;28;20048;-68
2022/12/08 08:58:31;;;;;;;18.23;9.63;;;2.40;99.90;;;;;;5079045;28;20020;-66
2022/12/08 09:00:58;;;;;;;20.40;10.45;;;2.40;99.90;;;;;;5078513;28;20029;-67
2022/12/08 09:03:26;;;;;;;18.50;10.25;;;2.40;99.90;;;;;;5079758;28;20081;-67
2022/12/08 09:05:55;;;;;;;17.65;9.75;;;2.40;99.90;;;;;;5098699;28;20469;-68
2022/12/08 09:08:23;;;;;;;18.42;9.13;;;2.40;99.90;;;;;;5098836;28;20473;-68
2022/12/08 09:10:50;;;;;;;18.73;10.85;;;2.40;99.90;;;;;;5080890;28;20020;-67
2022/12/08 09:13:18;;;;;;;20.27;10.40;;;2.50;99.90;;;;;;5098590;28;20439;-67
2022/12/08 09:15:45;;;;;;;20.58;11.02;;;2.50;99.90;;;;;;5098800;28;20024;-67
2022/12/08 09:18:12;;;;;;;18.00;9.45;;;2.50;99.90;;;;;;5099449;28;20305;-68
2022/12/08 09:20:41;;;;;;;18.00;9.98;;;2.50;99.90;;;;;;5098657;28;20022;-70
2022/12/08 09:23:08;;;;;;;20.13;9.43;;;2.50;99.90;;;;;;5098317;28;20091;-67
2022/12/08 09:25:36;;;;;;;21.90;10.57;;;2.50;99.90;;;;;;5080307;28;20035;-67
2022/12/08 09:28:04;;;;;;;18.95;10.15;;;2.50;99.90;;;;;;5098416;28;20016;-67
2022/12/08 09:30:31;;;;;;;18.77;9.32;;;2.50;99.90;;;;;;5098234;28;20016;-67
2022/12/08 09:32:59;;;;;;;19.42;10.20;;;2.60;99.90;;;;;;5098234;28;20016;-67
2022/12/08 09:35:27;;;;;;;17.92;9.02;;;2.60;99.90;;;;;;5098334;28;20052;-67
2022/12/08 09:37:54;;;;;;;35.90;15.65;;;2.60;99.90;;;;;;5080286;28;20020;-67
2022/12/08 09:40:24;;;;;;;17.92;9.30;;;2.60;99.90;;;;;;5098033;28;20016;-67
2022/12/08 09:43:25;;;;;;;17.90;9.13;;;2.60;99.90;;;;;;5098096;28;20050;-67
2022/12/08 09:45:53;;;;;;;18.25;9.93;;;2.60;99.90;;;;;;5097964;28;20462;-67
2022/12/08 09:48:35;;;;;;;19.50;9.93;;;2.60;99.90;;;;;;5098132;28;20050;-67
2022/12/08 09:51:04;;;;;;;19.40;10.10;;;2.60;99.90;;;;;;5098340;28;20035;-67
2022/12/08 09:53:45;;;;;;;17.90;9.13;;;2.60;99.90;;;;;;5097849;28;20420;-67
2022/12/08 09:56:19;;;;;;;16.05;8.50;;;2.60;99.90;;;;;;5097800;28;20477;-67
2022/12/08 09:59:08;;;;;;;18.70;9.50;;;2.70;99.90;;;;;;5097699;28;20020;-67
2022/12/08 10:01:40;;;;;;;20.13;9.30;;;2.70;99.90;;;;;;5079671;28;20093;-67
2022/12/08 10:04:34;;;;;;;16.77;9.05;;;2.70;99.90;;;;;;5097493;28;20076;-67
2022/12/08 10:07:30;;;;;;;16.73;9.05;;;2.70;99.90;;;;;;5097569;28;20026;-67
2022/12/08 10:10:16;;;;;;;16.55;8.23;;;2.70;99.90;;;;;;5097954;28;20078;-67
2022/12/08 10:13:16;;;;;;;19.85;9.18;;;2.80;99.90;;;;;;5097673;28;20043;-67
2022/12/08 10:16:07;;;;;;;14.90;8.38;;;2.80;99.90;;;;;;5078799;28;20036;-67
2022/12/08 10:18:36;;;;;;;11.90;6.93;;;2.80;99.90;;;;;;5097871;28;20103;-67
2022/12/08 10:21:10;;;;;;;16.15;8.45;;;2.80;99.90;;;;;;5096311;28;20428;-68
2022/12/08 10:23:41;;;;;;;15.15;7.90;;;2.80;99.90;;;;;;5097530;28;20024;-68
2022/12/08 10:26:21;;;;;;;14.50;7.72;;;2.90;99.90;;;;;;5097216;28;20019;-69
2022/12/08 10:28:49;;;;;;;13.48;7.18;;;2.90;99.90;;;;;;5097222;28;20335;-69
2022/12/08 10:31:20;;;;;;;14.68;7.20;;;2.90;99.90;;;;;;5079108;28;20056;-69
2022/12/08 10:33:52;;;;;;;13.07;6.90;;;2.90;99.90;;;;;;5078698;28;20032;-69
2022/12/08 10:36:20;;;;;;;13.15;6.57;;;3.00;99.90;;;;;;5096972;28;20020;-69
2022/12/08 10:38:47;;;;;;;11.10;6.32;;;3.00;99.90;;;;;;5096957;28;20020;-69
2022/12/08 10:41:19;;;;;;;12.30;6.70;;;3.00;99.90;;;;;;5096977;28;20085;-69
2022/12/08 10:43:50;;;;;;;11.35;6.18;;;3.00;99.90;;;;;;5096893;28;20066;-67
2022/12/08 10:46:27;;;;;;;9.27;5.50;;;3.00;99.90;;;;;;5097828;28;20105;-67
2022/12/08 10:49:03;;;;;;;13.40;7.00;;;3.00;99.90;;;;;;5097016;28;20016;-67
2022/12/08 10:51:38;;;;;;;11.60;6.22;;;3.00;99.90;;;;;;5078795;28;20028;-69
2022/12/08 10:54:26;;;;;;;12.93;5.97;;;3.00;99.90;;;;;;5097313;28;20024;-69
2022/12/08 10:56:55;;;;;;;14.63;6.97;;;2.90;99.90;;;;;;5097411;28;20027;-69
2022/12/08 10:59:28;;;;;;;10.20;6.15;;;2.90;99.90;;;;;;5096711;28;20428;-69
2022/12/08 11:01:56;;;;;;;11.82;5.60;;;2.90;99.90;;;;;;5096903;28;20024;-69
2022/12/08 11:04:35;;;;;;;9.55;4.97;;;3.00;99.90;;;;;;5096683;28;20131;-69
2022/12/08 11:07:12;;;;;;;10.23;5.82;;;3.00;99.90;;;;;;5096802;28;20074;-68
2022/12/08 11:09:49;;;;;;;10.52;6.25;;;3.00;99.90;;;;;;5096580;28;20105;-69
2022/12/08 11:12:19;;;;;;;9.70;6.00;;;3.00;99.90;;;;;;5096588;28;20481;-70
2022/12/08 11:14:57;;;;;;;10.18;5.97;;;3.00;99.90;;;;;;5096532;28;20032;-70
2022/12/08 11:17:28;;;;;;;12.75;6.22;;;3.00;99.90;;;;;;5096556;28;20036;-70
2022/12/08 11:20:02;;;;;;;10.88;5.88;;;3.10;99.90;;;;;;5097080;28;20119;-69
2022/12/08 11:22:33;;;;;;;13.20;6.00;;;3.10;99.90;;;;;;5096672;28;20103;-70
2022/12/08 11:25:15;;;;;;;8.93;4.82;;;3.10;99.90;;;;;;5096914;28;20423;-71
2022/12/08 11:27:45;;;;;;;9.15;5.80;;;3.10;99.90;;;;;;5096935;28;20028;-71
2022/12/08 11:30:37;;;;;;;10.00;6.20;;;3.10;99.90;;;;;;5096774;28;20023;-70
2022/12/08 11:33:25;;;;;;;11.15;5.63;;;3.10;99.90;;;;;;5100367;28;20024;-69
2022/12/08 11:36:05;;;;;;;11.30;6.22;;;3.10;99.90;;;;;;5082422;28;20038;-67
2022/12/08 11:38:41;;;;;;;11.05;5.63;;;3.10;99.90;;;;;;5100749;28;20027;-70
2022/12/08 11:41:15;;;;;;;9.65;5.10;;;3.20;99.90;;;;;;5100622;28;20020;-69
2022/12/08 11:43:59;;;;;;;8.25;4.80;;;3.30;99.90;;;;;;5082462;28;20343;-71
2022/12/08 11:46:52;;;;;;;9.25;5.03;;;3.30;99.90;;;;;;5100829;28;20293;-69
2022/12/08 11:49:21;;;;;;;8.60;4.78;;;3.40;99.90;;;;;;5082295;28;20055;-69
2022/12/08 11:52:12;;;;;;;11.52;5.40;;;3.40;99.90;;;;;;5082264;28;20024;-69
2022/12/08 11:54:53;;;;;;;12.98;6.40;;;3.50;99.90;;;;;;5100460;28;20027;-68
2022/12/08 11:57:24;;;;;;;11.63;5.63;;;3.60;99.90;;;;;;5100696;28;20024;-67
2022/12/08 11:59:53;;;;;;;11.70;5.85;;;3.60;99.90;;;;;;5100045;28;20020;-67
2022/12/08 12:02:28;;;;;;;9.30;6.00;;;3.70;99.90;;;;;;5100125;28;20048;-67
2022/12/08 12:05:29;;;;;;;10.07;5.55;;;3.70;99.90;;;;;;5099538;28;20044;-69
2022/12/08 12:08:41;;;;;;;9.05;5.50;;;3.80;99.90;;;;;;5099919;28;20040;-67
2022/12/08 12:11:09;;;;;;;8.73;5.00;;;3.80;99.90;;;;;;5056947;28;20039;-67
2022/12/08 12:14:01;;;;;;;7.85;4.55;;;3.90;99.90;;;;;;5081932;28;20024;-67
2022/12/08 12:16:54;;;;;;;7.80;4.30;;;3.90;99.90;;;;;;5100320;28;20031;-67
2022/12/08 12:19:23;;;;;;;8.80;4.78;;;3.90;99.90;;;;;;5100243;28;20085;-67
2022/12/08 12:21:56;;;;;;;9.30;5.07;;;3.80;99.90;;;;;;5099752;28;20103;-67
2022/12/08 12:24:34;;;;;;;8.93;4.90;;;3.80;99.90;;;;;;5099444;28;20305;-67
2022/12/08 12:27:21;;;;;;;9.32;4.82;;;3.80;99.90;;;;;;5100082;28;20051;-67
2022/12/08 12:30:06;;;;;;;9.73;4.97;;;3.70;99.90;;;;;;5099429;28;20023;-67
2022/12/08 12:33:00;;;;;;;9.50;4.22;;;3.70;99.90;;;;;;5081400;28;20324;-67
2022/12/08 12:35:36;;;;;;;6.10;3.50;;;3.60;99.90;;;;;;5099551;28;20020;-67
2022/12/08 12:41:07;;;;;;;6.50;3.70;;;3.60;99.90;;;;;;5099537;28;20077;-68
2022/12/08 12:43:36;;;;;;;7.50;4.03;;;3.60;99.90;;;;;;5080514;28;20024;-68
2022/12/08 12:46:25;;;;;;;7.43;4.13;;;3.50;99.90;;;;;;5081176;28;20043;-68
2022/12/08 12:49:13;;;;;;;6.65;4.20;;;3.50;99.90;;;;;;5099830;28;20054;-68
2022/12/08 12:51:54;;;;;;;6.85;4.20;;;3.50;99.90;;;;;;5098916;28;20482;-68
2022/12/08 12:54:28;;;;;;;9.93;4.57;;;3.50;99.90;;;;;;5098972;28;20107;-67
2022/12/08 12:57:12;;;;;;;7.45;4.00;;;3.50;99.90;;;;;;5099358;28;20020;-67
2022/12/08 12:59:53;;;;;;;9.38;4.38;;;3.50;99.90;;;;;;5099424;28;20073;-68
2022/12/08 13:02:36;;;;;;;7.70;3.78;;;3.50;99.90;;;;;;5099353;28;20020;-68
2022/12/08 13:05:23;;;;;;;7.22;4.28;;;3.40;99.90;;;;;;5077205;28;20048;-68
2022/12/08 13:08:07;;;;;;;8.73;4.40;;;3.50;99.90;;;;;;5078648;28;20043;-68
2022/12/08 13:10:40;;;;;;;7.78;3.75;;;3.50;99.90;;;;;;5078387;28;20048;-68
2022/12/08 13:13:19;;;;;;;7.57;3.75;;;3.50;99.90;;;;;;5078303;28;20020;-67
2022/12/08 13:15:52;;;;;;;7.32;4.45;;;3.50;99.90;;;;;;5078822;28;20012;-70
2022/12/08 13:18:21;;;;;;;9.15;4.57;;;3.50;99.90;;;;;;5078435;28;20360;-69